Terminal Aerodrome Forecast
Issued by NWS Bismarck, ND

Home | Current Version | Previous Version | Text Only | Print | Product List | Glossary Off
Versions: 1 2 3 4 5 6 7 8 9 10 11 12 13 14 15

000
FTUS43 KBIS 160200 AAA
TAFBIS
TAF AMD
KBIS 160255Z 1603/1624 17011KT P6SM SCT060 BKN080
     FM160600 VRB04KT P6SM BKN070
     FM161000 35010KT P6SM SCT060 BKN080
     FM161500 36011KT P6SM BKN080
     FM162100 34007KT P6SM SCT100=

USA.gov is the U.S. government's official web portal to all federal, state and local government web resources and services.